createdAt,value
2018-02-08T00:00:50.990Z,1015.64
2018-02-08T00:01:50.928Z,1015.64
2018-02-08T00:02:50.906Z,1015.63
2018-02-08T00:03:50.865Z,1015.63
2018-02-08T00:04:50.822Z,1015.62
2018-02-08T00:05:50.810Z,1015.63
2018-02-08T00:06:50.758Z,1015.66
2018-02-08T00:07:50.724Z,1015.65
2018-02-08T00:08:50.699Z,1015.68
2018-02-08T00:09:50.654Z,1015.67
2018-02-08T00:10:50.648Z,1015.61
2018-02-08T00:11:50.585Z,1015.64
2018-02-08T00:12:50.556Z,1015.68
2018-02-08T00:13:50.524Z,1015.67
2018-02-08T00:14:50.482Z,1015.72
2018-02-08T00:15:50.479Z,1015.72
2018-02-08T00:16:50.420Z,1015.72
2018-02-08T00:17:50.378Z,1015.71
2018-02-08T00:18:50.345Z,1015.75
2018-02-08T00:19:50.310Z,1015.71
2018-02-08T00:20:50.309Z,1015.72
2018-02-08T00:21:50.247Z,1015.77
2018-02-08T00:22:50.211Z,1015.78
2018-02-08T00:23:50.179Z,1015.71
2018-02-08T00:24:50.143Z,1015.77
2018-02-08T00:25:50.137Z,1015.77
2018-02-08T00:26:50.077Z,1015.76
2018-02-08T00:27:50.047Z,1015.79
2018-02-08T00:28:50.010Z,1015.71
2018-02-08T00:29:49.972Z,1015.77
2018-02-08T00:30:49.962Z,1015.78
2018-02-08T00:31:49.904Z,1015.76
2018-02-08T00:32:49.869Z,1015.75
2018-02-08T00:33:49.842Z,1015.78
2018-02-08T00:34:49.804Z,1015.77
2018-02-08T00:35:49.801Z,1015.76
2018-02-08T00:36:49.742Z,1015.75
2018-02-08T00:37:49.698Z,1015.72
2018-02-08T00:38:49.662Z,1015.72
2018-02-08T00:39:49.628Z,1015.73
2018-02-08T00:40:49.665Z,1015.73
2018-02-08T00:41:49.561Z,1015.70
2018-02-08T00:42:49.525Z,1015.70
2018-02-08T00:43:49.499Z,1015.70
2018-02-08T00:44:49.457Z,1015.72
2018-02-08T00:45:49.449Z,1015.69
2018-02-08T00:46:49.391Z,1015.70
2018-02-08T00:47:49.356Z,1015.71
2018-02-08T00:48:49.349Z,1015.74
2018-02-08T00:49:49.287Z,1015.73
2018-02-08T00:50:49.277Z,1015.74
2018-02-08T00:51:49.219Z,1015.73
2018-02-08T00:52:49.186Z,1015.73
2018-02-08T00:53:49.149Z,1015.73
2018-02-08T00:54:49.112Z,1015.74
2018-02-08T00:55:49.108Z,1015.75
2018-02-08T00:56:49.056Z,1015.77
2018-02-08T00:57:49.014Z,1015.78
2018-02-08T00:58:48.974Z,1015.73
2018-02-08T00:59:48.940Z,1015.76
2018-02-08T01:00:48.938Z,1015.74
2018-02-08T01:01:48.874Z,1015.75
2018-02-08T01:02:48.835Z,1015.74
2018-02-08T01:03:48.810Z,1015.76
2018-02-08T01:04:48.768Z,1015.76
2018-02-08T01:05:48.765Z,1015.76
2018-02-08T01:06:48.700Z,1015.79
2018-02-08T01:07:48.665Z,1015.74
2018-02-08T01:08:48.628Z,1015.76
2018-02-08T01:09:48.596Z,1015.78
2018-02-08T01:10:48.593Z,1015.78
2018-02-08T01:11:48.532Z,1015.82
2018-02-08T01:12:48.494Z,1015.87
2018-02-08T01:13:48.459Z,1015.81
2018-02-08T01:14:48.422Z,1015.83
2018-02-08T01:15:48.415Z,1015.84
2018-02-08T01:16:48.359Z,1015.84
2018-02-08T01:17:48.327Z,1015.87
2018-02-08T01:18:48.290Z,1015.88
2018-02-08T01:19:48.248Z,1015.85
2018-02-08T01:20:48.245Z,1015.90
2018-02-08T01:21:48.183Z,1015.85
2018-02-08T01:22:48.179Z,1015.83
2018-02-08T01:23:48.117Z,1015.85
2018-02-08T01:24:48.080Z,1015.86
2018-02-08T01:25:48.081Z,1015.89
2018-02-08T01:26:48.017Z,1015.87
2018-02-08T01:27:47.981Z,1015.88
2018-02-08T01:28:47.942Z,1015.91
2018-02-08T01:29:47.910Z,1015.91
2018-02-08T01:30:47.897Z,1015.91
2018-02-08T01:31:47.840Z,1015.91
2018-02-08T01:32:47.803Z,1015.88
2018-02-08T01:33:47.770Z,1015.90
2018-02-08T01:34:47.780Z,1015.90
2018-02-08T01:35:47.724Z,1015.90
2018-02-08T01:36:47.671Z,1015.93
2018-02-08T01:37:47.632Z,1015.93
2018-02-08T01:38:47.594Z,1015.93
2018-02-08T01:39:47.560Z,1015.91
2018-02-08T01:40:47.553Z,1015.96
2018-02-08T01:41:47.496Z,1015.93
2018-02-08T01:42:47.456Z,1015.92
2018-02-08T01:43:47.429Z,1015.94
2018-02-08T01:44:48.116Z,1015.94
2018-02-08T01:45:47.375Z,1015.95
2018-02-08T01:46:47.318Z,1015.93
2018-02-08T01:47:47.284Z,1015.92
2018-02-08T01:48:47.245Z,1015.96
2018-02-08T01:49:47.218Z,1015.94
2018-02-08T01:50:47.201Z,1015.95
2018-02-08T01:51:47.146Z,1015.97
2018-02-08T01:52:47.108Z,1015.99
2018-02-08T01:53:47.072Z,1015.99
2018-02-08T01:54:47.053Z,1015.98
2018-02-08T01:55:47.033Z,1016.03
2018-02-08T01:56:46.991Z,1015.99
2018-02-08T01:57:46.937Z,1016.00
2018-02-08T01:58:46.897Z,1015.99
2018-02-08T01:59:46.869Z,1015.98
2018-02-08T02:00:46.852Z,1015.99
2018-02-08T02:01:46.798Z,1015.95
2018-02-08T02:02:46.758Z,1015.95
2018-02-08T02:03:46.726Z,1015.98
2018-02-08T02:04:46.691Z,1015.92
2018-02-08T02:05:46.677Z,1015.98
2018-02-08T02:06:46.622Z,1015.92
2018-02-08T02:07:46.585Z,1015.91
2018-02-08T02:08:46.549Z,1015.89
2018-02-08T02:09:46.514Z,1015.89
2018-02-08T02:10:46.514Z,1015.90
2018-02-08T02:11:46.471Z,1015.88
2018-02-08T02:12:46.417Z,1015.89
2018-02-08T02:13:46.377Z,1015.92
2018-02-08T02:14:46.344Z,1015.91
2018-02-08T02:15:46.334Z,1015.88
2018-02-08T02:16:46.281Z,1015.90
2018-02-08T02:17:46.245Z,1015.88
2018-02-08T02:18:46.202Z,1015.92
2018-02-08T02:19:46.173Z,1015.90
2018-02-08T02:20:46.162Z,1015.85
2018-02-08T02:21:46.096Z,1015.91
2018-02-08T02:22:46.062Z,1015.89
2018-02-08T02:23:46.029Z,1015.89
2018-02-08T02:24:45.994Z,1015.88
2018-02-08T02:25:45.981Z,1015.92
2018-02-08T02:26:45.924Z,1015.90
2018-02-08T02:27:45.890Z,1015.91
2018-02-08T02:28:45.854Z,1015.91
2018-02-08T02:29:45.829Z,1015.92
2018-02-08T02:30:45.817Z,1015.94
2018-02-08T02:31:45.748Z,1015.93
2018-02-08T02:32:45.713Z,1015.91
2018-02-08T02:33:45.690Z,1015.91
2018-02-08T02:34:45.645Z,1015.93
2018-02-08T02:35:45.631Z,1015.97
2018-02-08T02:36:45.575Z,1015.97
2018-02-08T02:37:45.551Z,1015.97
2018-02-08T02:38:45.509Z,1016.00
2018-02-08T02:39:45.503Z,1016.00
2018-02-08T02:40:45.462Z,1016.01
2018-02-08T02:41:45.414Z,1015.98
2018-02-08T02:42:45.364Z,1015.98
2018-02-08T02:43:45.449Z,1015.93
2018-02-08T02:44:45.293Z,1015.94
2018-02-08T02:45:45.324Z,1015.93
2018-02-08T02:46:45.230Z,1015.91
2018-02-08T02:47:45.187Z,1015.92
2018-02-08T02:48:45.157Z,1015.92
2018-02-08T02:49:45.118Z,1015.92
2018-02-08T02:50:45.118Z,1015.91
2018-02-08T02:51:45.106Z,1015.94
2018-02-08T02:52:45.013Z,1015.95
2018-02-08T02:53:44.979Z,1015.92
2018-02-08T02:54:44.949Z,1015.92
2018-02-08T02:55:44.937Z,1015.90
2018-02-08T02:56:44.872Z,1015.89
2018-02-08T02:57:44.839Z,1015.90
2018-02-08T02:58:44.810Z,1015.91
2018-02-08T02:59:44.767Z,1015.92
2018-02-08T03:00:44.763Z,1015.87
2018-02-08T03:01:44.696Z,1015.91
2018-02-08T03:02:44.663Z,1015.88
2018-02-08T03:03:44.628Z,1015.88
2018-02-08T03:04:44.601Z,1015.87
2018-02-08T03:05:44.585Z,1015.89
2018-02-08T03:06:44.526Z,1015.89
2018-02-08T03:07:44.487Z,1015.88
2018-02-08T03:08:44.456Z,1015.89
2018-02-08T03:09:44.416Z,1015.85
2018-02-08T03:10:44.433Z,1015.87
2018-02-08T03:11:44.346Z,1015.87
2018-02-08T03:12:44.317Z,1015.87
2018-02-08T03:13:44.281Z,1015.91
2018-02-08T03:14:44.247Z,1015.85
2018-02-08T03:15:44.229Z,1015.87
2018-02-08T03:16:44.175Z,1015.91
2018-02-08T03:17:44.136Z,1015.86
2018-02-08T03:18:44.104Z,1015.88
2018-02-08T03:19:44.065Z,1015.91
2018-02-08T03:20:44.059Z,1015.89
2018-02-08T03:21:43.994Z,1015.89
2018-02-08T03:22:43.962Z,1015.88
2018-02-08T03:23:43.926Z,1015.89
2018-02-08T03:24:43.891Z,1015.87
2018-02-08T03:25:43.878Z,1015.88
2018-02-08T03:26:43.820Z,1015.90
2018-02-08T03:27:43.785Z,1015.85
2018-02-08T03:28:43.749Z,1015.87
2018-02-08T03:29:43.718Z,1015.85
2018-02-08T03:30:43.713Z,1015.90
2018-02-08T03:31:43.652Z,1015.87
2018-02-08T03:32:43.609Z,1015.84
2018-02-08T03:33:43.573Z,1015.85
2018-02-08T03:34:43.536Z,1015.88
2018-02-08T03:35:43.534Z,1015.86
2018-02-08T03:36:43.469Z,1015.85
2018-02-08T03:37:43.431Z,1015.86
2018-02-08T03:38:43.400Z,1015.85
2018-02-08T03:39:43.360Z,1015.86
2018-02-08T03:40:43.364Z,1015.87
2018-02-08T03:41:43.294Z,1015.90
2018-02-08T03:42:43.259Z,1015.89
2018-02-08T03:43:43.217Z,1015.90
2018-02-08T03:44:43.185Z,1015.88
2018-02-08T03:45:43.188Z,1015.87
2018-02-08T03:46:43.133Z,1015.89
2018-02-08T03:47:43.088Z,1015.84
2018-02-08T03:48:43.094Z,1015.87
2018-02-08T03:49:43.006Z,1015.85
2018-02-08T03:50:43.005Z,1015.83
2018-02-08T03:51:42.951Z,1015.89
2018-02-08T03:52:42.906Z,1015.81
2018-02-08T03:53:42.865Z,1015.84
2018-02-08T03:54:42.830Z,1015.86
2018-02-08T03:55:42.823Z,1015.84
2018-02-08T03:56:42.765Z,1015.90
2018-02-08T03:57:42.732Z,1015.91
2018-02-08T03:58:42.853Z,1015.91
2018-02-08T03:59:42.661Z,1015.87
2018-02-08T04:00:42.665Z,1015.91
2018-02-08T04:01:42.587Z,1015.94
2018-02-08T04:02:42.549Z,1015.94
2018-02-08T04:03:42.516Z,1015.98
2018-02-08T04:04:42.482Z,1015.99
2018-02-08T04:05:42.480Z,1016.04
2018-02-08T04:06:42.409Z,1016.02
2018-02-08T04:07:42.377Z,1016.02
2018-02-08T04:08:42.346Z,1016.06
2018-02-08T04:09:42.314Z,1016.09
2018-02-08T04:10:42.317Z,1016.07
2018-02-08T04:11:42.233Z,1016.06
2018-02-08T04:12:42.200Z,1016.09
2018-02-08T04:13:42.173Z,1016.07
2018-02-08T04:14:42.129Z,1016.11
2018-02-08T04:15:42.123Z,1016.12
2018-02-08T04:16:42.055Z,1016.07
2018-02-08T04:17:42.021Z,1016.11
2018-02-08T04:18:42.001Z,1016.15
2018-02-08T04:19:41.951Z,1016.11
2018-02-08T04:20:41.939Z,1016.16
2018-02-08T04:21:41.889Z,1016.19
2018-02-08T04:22:41.845Z,1016.15
2018-02-08T04:23:41.807Z,1016.10
2018-02-08T04:24:41.784Z,1016.13
2018-02-08T04:25:41.767Z,1016.12
2018-02-08T04:26:41.709Z,1016.14
2018-02-08T04:27:41.666Z,1016.14
2018-02-08T04:28:41.631Z,1016.17
2018-02-08T04:29:41.593Z,1016.16
2018-02-08T04:30:41.581Z,1016.18
2018-02-08T04:31:41.524Z,1016.18
2018-02-08T04:32:41.495Z,1016.18
2018-02-08T04:33:41.456Z,1016.19
2018-02-08T04:34:41.422Z,1016.21
2018-02-08T04:35:41.411Z,1016.22
2018-02-08T04:36:41.355Z,1016.22
2018-02-08T04:37:41.314Z,1016.20
2018-02-08T04:38:41.282Z,1016.19
2018-02-08T04:39:41.244Z,1016.22
2018-02-08T04:40:41.489Z,1016.19
2018-02-08T04:41:41.184Z,1016.19
2018-02-08T04:42:41.138Z,1016.19
2018-02-08T04:43:41.098Z,1016.21
2018-02-08T04:44:41.066Z,1016.23
2018-02-08T04:45:41.059Z,1016.25
2018-02-08T04:46:40.999Z,1016.28
2018-02-08T04:47:40.961Z,1016.30
2018-02-08T04:48:40.922Z,1016.36
2018-02-08T04:49:40.898Z,1016.31
2018-02-08T04:50:40.877Z,1016.32
2018-02-08T04:51:40.812Z,1016.33
2018-02-08T04:52:40.787Z,1016.33
2018-02-08T04:53:40.754Z,1016.33
2018-02-08T04:54:40.716Z,1016.37
2018-02-08T04:55:40.718Z,1016.37
2018-02-08T04:56:40.641Z,1016.37
2018-02-08T04:57:40.615Z,1016.36
2018-02-08T04:58:40.566Z,1016.33
2018-02-08T04:59:40.580Z,1016.36
2018-02-08T05:00:40.499Z,1016.35
2018-02-08T05:01:40.506Z,1016.38
2018-02-08T05:02:40.432Z,1016.42
2018-02-08T05:03:40.425Z,1016.40
2018-02-08T05:04:40.351Z,1016.47
2018-02-08T05:05:40.333Z,1016.46
2018-02-08T05:06:40.290Z,1016.51
2018-02-08T05:07:40.292Z,1016.46
2018-02-08T05:08:40.209Z,1016.50
2018-02-08T05:09:40.184Z,1016.52
2018-02-08T05:10:40.144Z,1016.53
2018-02-08T05:11:40.106Z,1016.50
2018-02-08T05:12:40.081Z,1016.51
2018-02-08T05:13:40.083Z,1016.55
2018-02-08T05:14:40.007Z,1016.58
2018-02-08T05:15:39.970Z,1016.62
2018-02-08T05:16:39.928Z,1016.60
2018-02-08T05:17:39.890Z,1016.62
2018-02-08T05:18:39.858Z,1016.62
2018-02-08T05:19:39.863Z,1016.63
2018-02-08T05:20:39.784Z,1016.62
2018-02-08T05:21:39.750Z,1016.62
2018-02-08T05:22:39.716Z,1016.64
2018-02-08T05:23:39.682Z,1016.66
2018-02-08T05:24:39.649Z,1016.68
2018-02-08T05:25:39.648Z,1016.65
2018-02-08T05:26:39.575Z,1016.72
2018-02-08T05:27:39.548Z,1016.72
2018-02-08T05:28:39.508Z,1016.73
2018-02-08T05:29:39.464Z,1016.70
2018-02-08T05:30:39.429Z,1016.72
2018-02-08T05:31:39.433Z,1016.73
2018-02-08T05:32:39.360Z,1016.70
2018-02-08T05:33:39.328Z,1016.68
2018-02-08T05:34:39.287Z,1016.72
2018-02-08T05:35:39.263Z,1016.74
2018-02-08T05:36:39.217Z,1016.77
2018-02-08T05:37:39.215Z,1016.77
2018-02-08T05:38:39.142Z,1016.76
2018-02-08T05:39:39.107Z,1016.75
2018-02-08T05:40:39.075Z,1016.77
2018-02-08T05:41:39.040Z,1016.78
2018-02-08T05:42:39.002Z,1016.81
2018-02-08T05:43:39.004Z,1016.80
2018-02-08T05:44:38.937Z,1016.85
2018-02-08T05:45:38.891Z,1016.81
2018-02-08T05:46:38.859Z,1016.88
2018-02-08T05:47:38.822Z,1016.84
2018-02-08T05:48:38.791Z,1016.80
2018-02-08T05:49:38.791Z,1016.87
2018-02-08T05:50:38.714Z,1016.81
2018-02-08T05:51:38.682Z,1016.83
2018-02-08T05:52:38.652Z,1016.86
2018-02-08T05:53:38.632Z,1016.88
2018-02-08T05:54:38.570Z,1016.88
2018-02-08T05:55:38.587Z,1016.87
2018-02-08T05:56:38.498Z,1016.88
2018-02-08T05:57:38.472Z,1016.86
2018-02-08T05:58:38.428Z,1016.96
2018-02-08T05:59:38.396Z,1016.87
2018-02-08T06:00:38.362Z,1016.91
2018-02-08T06:01:38.368Z,1016.93
2018-02-08T06:02:38.287Z,1016.94
2018-02-08T06:03:38.254Z,1016.95
2018-02-08T06:04:38.232Z,1016.91
2018-02-08T06:05:38.181Z,1016.94
2018-02-08T06:06:38.144Z,1016.95
2018-02-08T06:07:38.151Z,1016.91
2018-02-08T06:08:38.069Z,1016.96
2018-02-08T06:09:38.047Z,1016.94
2018-02-08T06:10:38.011Z,1016.97
2018-02-08T06:11:37.970Z,1016.96
2018-02-08T06:12:38.031Z,1016.93
2018-02-08T06:13:37.937Z,1016.94
2018-02-08T06:14:37.858Z,1016.95
2018-02-08T06:15:37.824Z,1016.96
2018-02-08T06:16:37.786Z,1016.95
2018-02-08T06:17:37.748Z,1016.99
2018-02-08T06:18:37.711Z,1017.01
2018-02-08T06:19:37.716Z,1017.00
2018-02-08T06:20:37.637Z,1017.00
2018-02-08T06:21:37.609Z,1016.98
2018-02-08T06:22:37.612Z,1016.99
2018-02-08T06:23:37.536Z,1016.99
2018-02-08T06:24:37.500Z,1017.02
2018-02-08T06:25:37.499Z,1017.02
2018-02-08T06:26:37.425Z,1017.06
2018-02-08T06:27:37.389Z,1017.05
2018-02-08T06:28:37.359Z,1017.03
2018-02-08T06:29:37.347Z,1017.04
2018-02-08T06:30:37.317Z,1017.04
2018-02-08T06:31:37.285Z,1017.03
2018-02-08T06:32:37.212Z,1017.05
2018-02-08T06:33:37.181Z,1017.08
2018-02-08T06:34:37.137Z,1017.07
2018-02-08T06:35:37.106Z,1017.09
2018-02-08T06:36:37.071Z,1017.08
2018-02-08T06:37:37.070Z,1017.11
2018-02-08T06:38:36.999Z,1017.14
2018-02-08T06:39:36.961Z,1017.12
2018-02-08T06:40:36.922Z,1017.17
2018-02-08T06:41:36.887Z,1017.18
2018-02-08T06:42:36.854Z,1017.25
2018-02-08T06:43:36.846Z,1017.20
2018-02-08T06:44:36.783Z,1017.23
2018-02-08T06:45:36.773Z,1017.20
2018-02-08T06:46:36.713Z,1017.25
2018-02-08T06:47:36.668Z,1017.23
2018-02-08T06:48:36.633Z,1017.26
2018-02-08T06:49:36.602Z,1017.25
2018-02-08T06:50:36.606Z,1017.30
2018-02-08T06:51:36.557Z,1017.29
2018-02-08T06:52:36.495Z,1017.31
2018-02-08T06:53:36.453Z,1017.28
2018-02-08T06:54:36.420Z,1017.30
2018-02-08T06:55:36.386Z,1017.27
2018-02-08T06:56:36.386Z,1017.30
2018-02-08T06:57:36.315Z,1017.27
2018-02-08T06:58:36.318Z,1017.27
2018-02-08T06:59:36.248Z,1017.27
2018-02-08T07:00:36.211Z,1017.28
2018-02-08T07:01:36.173Z,1017.30
2018-02-08T07:02:36.172Z,1017.29
2018-02-08T07:03:36.112Z,1017.33
2018-02-08T07:04:36.062Z,1017.32
2018-02-08T07:05:36.033Z,1017.28
2018-02-08T07:06:35.990Z,1017.34
2018-02-08T07:07:35.961Z,1017.36
2018-02-08T07:08:35.962Z,1017.33
2018-02-08T07:09:35.909Z,1017.38
2018-02-08T07:10:35.853Z,1017.38
2018-02-08T07:11:35.810Z,1017.35
2018-02-08T07:12:35.776Z,1017.35
2018-02-08T07:13:35.739Z,1017.35
2018-02-08T07:14:35.743Z,1017.40
2018-02-08T07:15:35.670Z,1017.43
2018-02-08T07:16:35.636Z,1017.40
2018-02-08T07:17:35.597Z,1017.40
2018-02-08T07:18:35.587Z,1017.43
2018-02-08T07:19:36.110Z,1017.45
2018-02-08T07:20:35.527Z,1017.49
2018-02-08T07:21:35.459Z,1017.46
2018-02-08T07:22:35.422Z,1017.46
2018-02-08T07:23:35.384Z,1017.51
2018-02-08T07:24:35.366Z,1017.51
2018-02-08T07:25:35.316Z,1017.51
2018-02-08T07:26:35.314Z,1017.54
2018-02-08T07:27:35.243Z,1017.53
2018-02-08T07:28:35.215Z,1017.51
2018-02-08T07:29:35.170Z,1017.49
2018-02-08T07:30:35.135Z,1017.46
2018-02-08T07:31:35.115Z,1017.50
2018-02-08T07:32:35.097Z,1017.53
2018-02-08T07:33:35.027Z,1017.52
2018-02-08T07:34:34.992Z,1017.52
2018-02-08T07:35:34.960Z,1017.55
2018-02-08T07:36:34.921Z,1017.51
2018-02-08T07:37:34.946Z,1017.52
2018-02-08T07:38:34.893Z,1017.51
2018-02-08T07:39:34.827Z,1017.58
2018-02-08T07:40:34.778Z,1017.54
2018-02-08T07:41:34.743Z,1017.55
2018-02-08T07:42:34.708Z,1017.55
2018-02-08T07:43:34.674Z,1017.53
2018-02-08T07:44:34.664Z,1017.57
2018-02-08T07:45:34.638Z,1017.55
2018-02-08T07:46:34.584Z,1017.57
2018-02-08T07:47:34.537Z,1017.59
2018-02-08T07:48:34.496Z,1017.64
2018-02-08T07:49:34.462Z,1017.67
2018-02-08T07:50:34.466Z,1017.67
2018-02-08T07:51:34.398Z,1017.70
2018-02-08T07:52:34.359Z,1017.67
2018-02-08T07:53:34.323Z,1017.72
2018-02-08T07:54:34.289Z,1017.77
2018-02-08T07:55:34.252Z,1017.77
2018-02-08T07:56:34.262Z,1017.77
2018-02-08T07:57:34.187Z,1017.79
2018-02-08T07:58:34.150Z,1017.81
2018-02-08T07:59:34.116Z,1017.78
2018-02-08T08:00:34.081Z,1017.81
2018-02-08T08:01:34.051Z,1017.82
2018-02-08T08:02:34.049Z,1017.85
2018-02-08T08:03:33.981Z,1017.84
2018-02-08T08:04:33.947Z,1017.90
2018-02-08T08:05:33.907Z,1017.91
2018-02-08T08:06:33.875Z,1017.94
2018-02-08T08:07:33.841Z,1017.97
2018-02-08T08:08:33.845Z,1018.07
2018-02-08T08:09:33.776Z,1018.03
2018-02-08T08:10:33.741Z,1018.00
2018-02-08T08:11:33.709Z,1018.06
2018-02-08T08:12:33.675Z,1018.03
2018-02-08T08:13:33.648Z,1018.07
2018-02-08T08:14:33.644Z,1018.09
2018-02-08T08:15:33.568Z,1018.18
2018-02-08T08:16:33.557Z,1018.15
2018-02-08T08:17:33.503Z,1018.13
2018-02-08T08:18:33.473Z,1018.16
2018-02-08T08:19:33.437Z,1018.11
2018-02-08T08:20:33.431Z,1018.10
2018-02-08T08:21:33.373Z,1018.15
2018-02-08T08:22:33.340Z,1018.14
2018-02-08T08:23:33.306Z,1018.14
2018-02-08T08:24:33.278Z,1018.18
2018-02-08T08:25:33.270Z,1018.22
2018-02-08T08:26:33.272Z,1018.25
2018-02-08T08:27:33.180Z,1018.26
2018-02-08T08:28:33.149Z,1018.27
2018-02-08T08:29:33.118Z,1018.27
2018-02-08T08:30:33.119Z,1018.27
2018-02-08T08:31:33.058Z,1018.28
2018-02-08T08:32:33.028Z,1018.33
2018-02-08T08:33:33.010Z,1018.39
2018-02-08T08:34:32.969Z,1018.41
2018-02-08T08:35:32.975Z,1018.43
2018-02-08T08:36:32.914Z,1018.47
2018-02-08T08:37:32.889Z,1018.42
2018-02-08T08:38:32.858Z,1018.49
2018-02-08T08:39:32.832Z,1018.48
2018-02-08T08:40:32.842Z,1018.49
2018-02-08T08:41:32.772Z,1018.43
2018-02-08T08:42:32.747Z,1018.48
2018-02-08T08:43:32.718Z,1018.51
2018-02-08T08:44:32.729Z,1018.50
2018-02-08T08:45:32.732Z,1018.51
2018-02-08T08:46:32.686Z,1018.58
2018-02-08T08:47:32.609Z,1018.55
2018-02-08T08:48:32.589Z,1018.59
2018-02-08T08:49:32.559Z,1018.58
2018-02-08T08:50:32.592Z,1018.59
2018-02-08T08:51:32.503Z,1018.56
2018-02-08T08:52:32.524Z,1018.60
2018-02-08T08:53:32.456Z,1018.54
2018-02-08T08:54:32.425Z,1018.55
2018-02-08T08:55:32.398Z,1018.62
2018-02-08T08:56:32.373Z,1018.58
2018-02-08T08:57:32.347Z,1018.57
2018-02-08T08:58:32.362Z,1018.62
2018-02-08T08:59:32.297Z,1018.64
2018-02-08T09:00:32.275Z,1018.68
2018-02-08T09:01:32.251Z,1018.72
2018-02-08T09:02:32.228Z,1018.71
2018-02-08T09:03:32.210Z,1018.72
2018-02-08T09:04:32.213Z,1018.76
2018-02-08T09:05:32.181Z,1018.74
2018-02-08T09:06:32.127Z,1018.75
2018-02-08T09:07:32.106Z,1018.77
2018-02-08T09:08:32.085Z,1018.76
2018-02-08T09:09:32.060Z,1018.78
2018-02-08T09:10:32.062Z,1018.74
2018-02-08T09:11:32.006Z,1018.77
2018-02-08T09:12:31.989Z,1018.82
2018-02-08T09:13:31.984Z,1018.78
2018-02-08T09:14:31.945Z,1018.80
2018-02-08T09:15:31.952Z,1018.80
2018-02-08T09:16:31.893Z,1018.85
2018-02-08T09:17:31.868Z,1018.83
2018-02-08T09:18:31.865Z,1018.85
2018-02-08T09:19:31.825Z,1018.86
2018-02-08T09:20:31.801Z,1018.94
2018-02-08T09:21:31.815Z,1018.95
2018-02-08T09:22:31.760Z,1019.00
2018-02-08T09:23:31.731Z,1019.04
2018-02-08T09:24:31.710Z,1019.01
2018-02-08T09:25:31.689Z,1019.13
2018-02-08T09:26:31.665Z,1019.15
2018-02-08T09:27:31.690Z,1019.15
2018-02-08T09:28:31.621Z,1019.18
2018-02-08T09:29:31.604Z,1019.22
2018-02-08T09:30:31.586Z,1019.22
2018-02-08T09:31:31.551Z,1019.20
2018-02-08T09:32:31.532Z,1019.25
2018-02-08T09:33:31.561Z,1019.24
2018-02-08T09:34:31.493Z,1019.27
2018-02-08T09:35:31.474Z,1019.24
2018-02-08T09:36:31.475Z,1019.23
2018-02-08T09:37:31.424Z,1019.21
2018-02-08T09:38:31.409Z,1019.25
2018-02-08T09:39:31.423Z,1019.26
2018-02-08T09:40:31.366Z,1019.32
2018-02-08T09:41:31.346Z,1019.32
2018-02-08T09:42:31.325Z,1019.36
2018-02-08T09:43:31.304Z,1019.32
2018-02-08T09:44:31.284Z,1019.32
2018-02-08T09:45:31.301Z,1019.38
2018-02-08T09:46:31.253Z,1019.41
2018-02-08T09:47:31.222Z,1019.43
2018-02-08T09:48:31.203Z,1019.51
2018-02-08T09:49:31.184Z,1019.54
2018-02-08T09:50:31.171Z,1019.61
2018-02-08T09:51:31.177Z,1019.60
2018-02-08T09:52:31.123Z,1019.70
2018-02-08T09:53:31.097Z,1019.70
2018-02-08T09:54:31.086Z,1019.76
2018-02-08T09:55:31.093Z,1019.81
2018-02-08T09:56:31.047Z,1019.83
2018-02-08T09:57:31.028Z,1019.82
2018-02-08T09:58:30.998Z,1019.86
2018-02-08T09:59:30.988Z,1019.90
2018-02-08T10:00:31.001Z,1019.92
2018-02-08T10:01:30.944Z,1019.94
2018-02-08T10:02:30.924Z,1019.95
2018-02-08T10:03:30.909Z,1020.01
2018-02-08T10:04:30.889Z,1020.04
2018-02-08T10:05:30.859Z,1020.01
2018-02-08T10:06:30.907Z,1020.03
2018-02-08T10:07:30.829Z,1020.03
2018-02-08T10:08:30.808Z,1020.06
2018-02-08T10:09:30.787Z,1020.10
2018-02-08T10:10:30.770Z,1020.11
2018-02-08T10:11:30.749Z,1020.13
2018-02-08T10:12:30.775Z,1020.08
2018-02-08T10:13:30.713Z,1020.20
2018-02-08T10:14:30.719Z,1020.18
2018-02-08T10:15:30.679Z,1020.18
2018-02-08T10:16:30.656Z,1020.27
2018-02-08T10:17:30.644Z,1020.24
2018-02-08T10:18:30.662Z,1020.22
2018-02-08T10:19:30.608Z,1020.25
2018-02-08T10:20:30.623Z,1020.35
2018-02-08T10:21:30.571Z,1020.40
2018-02-08T10:22:30.552Z,1020.43
2018-02-08T10:23:30.536Z,1020.39
2018-02-08T10:24:30.522Z,1020.51
2018-02-08T10:25:30.507Z,1020.65
2018-02-08T10:26:30.520Z,1020.60
2018-02-08T10:27:30.461Z,1020.58
2018-02-08T10:28:30.473Z,1020.62
2018-02-08T10:29:30.431Z,1020.68
2018-02-08T10:30:30.411Z,1020.74
2018-02-08T10:31:30.397Z,1020.76
2018-02-08T10:32:30.419Z,1020.84
2018-02-08T10:33:30.362Z,1020.82
2018-02-08T10:34:30.353Z,1020.94
2018-02-08T10:35:30.332Z,1021.02
2018-02-08T10:36:30.311Z,1021.08
2018-02-08T10:37:30.295Z,1021.14
2018-02-08T10:38:30.324Z,1021.15
2018-02-08T10:39:30.270Z,1021.26
2018-02-08T10:40:30.249Z,1021.27
2018-02-08T10:41:30.236Z,1021.38
2018-02-08T10:42:30.218Z,1021.47
2018-02-08T10:43:30.195Z,1021.42
2018-02-08T10:44:30.215Z,1021.56
2018-02-08T10:45:30.197Z,1021.62
2018-02-08T10:46:30.156Z,1021.79
2018-02-08T10:47:30.139Z,1021.79
2018-02-08T10:48:30.115Z,1021.97
2018-02-08T10:49:30.099Z,1022.09
2018-02-08T10:50:30.127Z,1022.13
2018-02-08T10:51:30.066Z,1022.29
2018-02-08T10:52:30.050Z,1022.34
2018-02-08T10:53:30.034Z,1022.66
2018-02-08T10:54:30.026Z,1022.67
2018-02-08T10:55:30.010Z,1022.92
2018-02-08T10:56:30.025Z,1023.02
2018-02-08T10:57:29.972Z,1023.22
2018-02-08T10:58:29.956Z,1023.36
2018-02-08T10:59:29.942Z,1023.38
2018-02-08T11:00:29.953Z,1023.65
2018-02-08T11:01:29.905Z,1023.72
2018-02-08T11:02:29.929Z,1024.07
2018-02-08T11:03:29.872Z,1024.08
2018-02-08T11:04:29.855Z,1024.69
2018-02-08T11:05:29.844Z,1024.97
2018-02-08T11:06:29.826Z,1024.95
2018-02-08T11:07:29.814Z,1025.03
2018-02-08T11:08:29.837Z,1024.99
2018-02-08T11:09:29.777Z,1025.53
2018-02-08T11:10:29.763Z,1025.59
2018-02-08T11:11:29.747Z,1025.69
2018-02-08T11:12:29.735Z,1025.43
2018-02-08T11:13:29.726Z,1025.85
2018-02-08T11:14:29.762Z,1026.39
2018-02-08T11:15:29.685Z,1026.65
2018-02-08T11:16:29.676Z,1027.28
2018-02-08T11:17:29.682Z,1027.01
2018-02-08T11:18:29.692Z,1027.47
2018-02-08T11:19:29.703Z,1027.46
2018-02-08T11:20:29.642Z,1027.68
2018-02-08T11:21:29.602Z,1028.04
2018-02-08T11:22:29.588Z,1028.83
2018-02-08T11:23:29.621Z,1028.95
2018-02-08T11:24:29.625Z,1028.64
2018-02-08T11:25:29.576Z,1029.70
2018-02-08T11:26:29.534Z,1029.91
2018-02-08T11:27:29.517Z,1029.73
2018-02-08T11:28:29.502Z,1029.33
2018-02-08T11:29:29.494Z,1029.95
2018-02-08T11:30:29.510Z,1030.24
2018-02-08T11:31:29.462Z,1030.29
2018-02-08T11:32:29.446Z,1029.72
2018-02-08T11:33:29.431Z,1029.97
2018-02-08T11:34:29.425Z,1030.63
2018-02-08T11:35:29.430Z,1030.38
2018-02-08T11:36:29.392Z,1031.18
2018-02-08T11:37:29.380Z,1030.74
2018-02-08T11:38:29.364Z,1031.02
2018-02-08T11:39:29.352Z,1030.04
2018-02-08T11:40:29.373Z,1029.70
2018-02-08T11:41:29.332Z,1029.07
2018-02-08T11:42:29.321Z,1029.34
2018-02-08T11:43:29.313Z,1029.55
2018-02-08T11:44:29.285Z,1029.66
2018-02-08T11:45:29.268Z,1029.35
2018-02-08T11:46:29.281Z,1028.83
2018-02-08T11:47:29.246Z,1029.40
2018-02-08T11:48:29.229Z,1029.44
2018-02-08T11:49:29.208Z,1029.05
2018-02-08T11:50:29.224Z,1028.48
2018-02-08T11:51:29.183Z,1028.94
2018-02-08T11:52:29.187Z,1029.06
2018-02-08T11:53:29.163Z,1029.62
2018-02-08T11:54:29.143Z,1029.17
2018-02-08T11:55:29.153Z,1029.26
2018-02-08T11:56:29.110Z,1028.26
2018-02-08T11:57:29.105Z,1028.39
2018-02-08T11:58:29.086Z,1027.67
2018-02-08T11:59:29.076Z,1027.55
2018-02-08T12:00:29.093Z,1027.25
2018-02-08T12:01:29.042Z,1027.73
2018-02-08T12:02:29.042Z,1027.37
2018-02-08T12:03:29.017Z,1027.03
2018-02-08T12:04:29.003Z,1026.82
2018-02-08T12:05:29.020Z,1026.95